Time;durP1;ratioP1;P1;durP2;ratioP2;P2;SDS_P1;SDS_P2;PMS_P1;PMS_P2;Temp;Humidity;BMP_temperature;BMP_pressure;BME280_temperature;BME280_humidity;BME280_pressure;Samples;Min_cycle;Max_cycle;Signal;HPM_P1;HPM_P2
2021/08/13 00:01:34;;;;;;;25.38;10.32;;;;;;;;;;5077970;28;20023;-69
2021/08/13 00:04:00;;;;;;;18.20;9.75;;;;;;;;;;5076352;28;20059;-71
2021/08/13 00:06:26;;;;;;;19.30;9.80;;;;;;;;;;5075208;28;20073;-69
2021/08/13 00:08:52;;;;;;;20.00;9.82;;;;;;;;;;5075304;28;20124;-70
2021/08/13 00:11:18;;;;;;;21.13;9.73;;;;;;;;;;5073129;28;20043;-70
2021/08/13 00:13:45;;;;;;;22.42;9.80;;;;;;;;;;5073926;28;20024;-69
2021/08/13 00:16:11;;;;;;;23.98;9.10;;;;;;;;;;5075419;28;20024;-68
2021/08/13 00:18:37;;;;;;;23.25;9.43;;;;;;;;;;5078128;28;20121;-69
2021/08/13 00:21:03;;;;;;;19.13;9.43;;;;;;;;;;5072688;28;20021;-69
2021/08/13 00:23:29;;;;;;;23.17;9.75;;;;;;;;;;5072213;28;20103;-69
2021/08/13 00:25:55;;;;;;;27.77;9.60;;;;;;;;;;5074164;28;20029;-71
2021/08/13 00:28:22;;;;;;;34.08;10.10;;;;;;;;;;5077973;28;20025;-70
2021/08/13 00:30:48;;;;;;;21.30;9.98;;;;;;;;;;5076040;28;20044;-68
2021/08/13 00:33:14;;;;;;;21.02;8.88;;;;;;;;;;5073885;28;20043;-69
2021/08/13 00:35:40;;;;;;;28.02;10.05;;;;;;;;;;5076171;28;20104;-68
2021/08/13 00:38:06;;;;;;;22.25;9.30;;;;;;;;;;5075801;28;20596;-69
2021/08/13 00:40:32;;;;;;;19.80;9.77;;;;;;;;;;5074589;28;20029;-72
2021/08/13 00:42:58;;;;;;;25.38;10.35;;;;;;;;;;5079655;28;20512;-70
2021/08/13 00:45:25;;;;;;;25.23;9.13;;;;;;;;;;5072799;28;20678;-69
2021/08/13 00:47:51;;;;;;;20.95;9.45;;;;;;;;;;5076355;28;20486;-71
2021/08/13 00:50:17;;;;;;;23.17;9.63;;;;;;;;;;5074533;28;20032;-69
2021/08/13 00:52:43;;;;;;;24.15;10.60;;;;;;;;;;5075178;28;20039;-69
2021/08/13 00:55:10;;;;;;;25.52;9.82;;;;;;;;;;5074445;28;20507;-71
2021/08/13 00:57:36;;;;;;;34.65;11.13;;;;;;;;;;5075017;28;20028;-68
2021/08/13 01:00:02;;;;;;;24.38;10.70;;;;;;;;;;5077568;28;20593;-70
2021/08/13 01:02:28;;;;;;;26.58;9.80;;;;;;;;;;5072062;28;20028;-69
2021/08/13 01:04:54;;;;;;;20.63;9.80;;;;;;;;;;5075312;28;20027;-74
2021/08/13 01:07:20;;;;;;;21.77;10.48;;;;;;;;;;5073827;28;20017;-68
2021/08/13 01:09:47;;;;;;;28.70;9.63;;;;;;;;;;5076925;28;20048;-71
2021/08/13 01:12:25;;;;;;;23.45;9.88;;;;;;;;;;5074589;28;20189;-69
2021/08/13 01:14:51;;;;;;;25.38;9.65;;;;;;;;;;5074931;28;20025;-69
2021/08/13 01:17:21;;;;;;;20.80;10.20;;;;;;;;;;5074746;28;20043;-73
2021/08/13 01:19:57;;;;;;;21.77;9.27;;;;;;;;;;5069585;28;20136;-69
2021/08/13 01:22:26;;;;;;;23.85;10.40;;;;;;;;;;5073528;28;20676;-69
2021/08/13 01:24:54;;;;;;;23.35;10.30;;;;;;;;;;5072285;28;20028;-69
2021/08/13 01:27:22;;;;;;;22.58;10.00;;;;;;;;;;5075113;28;20515;-69
2021/08/13 01:30:14;;;;;;;23.23;10.13;;;;;;;;;;5074129;28;20035;-69
2021/08/13 01:32:43;;;;;;;23.88;10.25;;;;;;;;;;5071804;28;20036;-73
2021/08/13 01:35:15;;;;;;;27.77;10.68;;;;;;;;;;5070911;28;20064;-69
2021/08/13 01:37:44;;;;;;;27.63;11.43;;;;;;;;;;5070945;28;20546;-68
2021/08/13 01:40:12;;;;;;;24.70;9.70;;;;;;;;;;5074249;28;20028;-69
2021/08/13 01:42:39;;;;;;;21.15;9.52;;;;;;;;;;5074580;28;20028;-73
2021/08/13 01:45:06;;;;;;;18.33;9.45;;;;;;;;;;5073021;28;20493;-69
2021/08/13 01:47:32;;;;;;;23.55;10.07;;;;;;;;;;5073850;28;20042;-70
2021/08/13 01:49:58;;;;;;;24.60;9.57;;;;;;;;;;5073050;28;20021;-68
2021/08/13 01:52:25;;;;;;;18.02;6.68;;;;;;;;;;5074977;28;20032;-69
2021/08/13 01:54:52;;;;;;;12.63;6.63;;;;;;;;;;5071145;28;20028;-74
2021/08/13 01:57:18;;;;;;;14.98;6.80;;;;;;;;;;5073664;28;20547;-69
2021/08/13 01:59:44;;;;;;;19.27;6.97;;;;;;;;;;5071332;28;20039;-69
2021/08/13 02:02:10;;;;;;;18.98;8.05;;;;;;;;;;5075030;28;20214;-68
2021/08/13 02:04:39;;;;;;;20.45;7.45;;;;;;;;;;5074348;28;20017;-70
2021/08/13 02:07:05;;;;;;;13.75;6.53;;;;;;;;;;5078871;28;20587;-68
2021/08/13 02:09:32;;;;;;;15.98;6.78;;;;;;;;;;5075762;28;20032;-70
2021/08/13 02:11:58;;;;;;;15.77;7.25;;;;;;;;;;5072184;28;20045;-68
2021/08/13 02:14:24;;;;;;;16.73;8.25;;;;;;;;;;5076113;28;20476;-69
2021/08/13 02:16:52;;;;;;;17.60;9.32;;;;;;;;;;5070915;28;20082;-68
2021/08/13 02:19:41;;;;;;;24.60;9.30;;;;;;;;;;5074738;28;20044;-72
2021/08/13 02:22:07;;;;;;;25.58;8.20;;;;;;;;;;5070282;28;20025;-70
2021/08/13 02:24:33;;;;;;;20.85;7.03;;;;;;;;;;5077829;28;20051;-69
2021/08/13 02:27:01;;;;;;;17.20;6.63;;;;;;;;;;5073218;28;20052;-70
2021/08/13 02:29:27;;;;;;;14.73;6.97;;;;;;;;;;5073105;28;20020;-69
2021/08/13 02:31:54;;;;;;;18.20;7.72;;;;;;;;;;5077736;28;20028;-71
2021/08/13 02:34:20;;;;;;;19.27;7.85;;;;;;;;;;5073171;28;20020;-68
2021/08/13 02:36:53;;;;;;;14.65;6.68;;;;;;;;;;5074192;28;20100;-69
2021/08/13 02:39:23;;;;;;;11.88;5.78;;;;;;;;;;5072984;28;20028;-69
2021/08/13 02:41:49;;;;;;;10.63;5.72;;;;;;;;;;5067671;28;20035;-69
2021/08/13 02:44:18;;;;;;;12.98;5.60;;;;;;;;;;5067495;28;20017;-72
2021/08/13 02:46:49;;;;;;;12.93;5.75;;;;;;;;;;5072857;28;20036;-71
2021/08/13 02:49:16;;;;;;;16.00;6.50;;;;;;;;;;5069896;28;20094;-69
2021/08/13 02:51:43;;;;;;;12.77;5.75;;;;;;;;;;5071417;28;20287;-69
2021/08/13 02:54:14;;;;;;;11.57;5.93;;;;;;;;;;5070469;28;20025;-69
2021/08/13 02:56:40;;;;;;;18.67;6.57;;;;;;;;;;5071468;28;20032;-69
2021/08/13 02:59:08;;;;;;;23.55;7.63;;;;;;;;;;5071892;28;20016;-69
2021/08/13 03:01:35;;;;;;;18.08;5.70;;;;;;;;;;5070560;28;20027;-69
2021/08/13 03:04:03;;;;;;;15.70;6.85;;;;;;;;;;5068498;28;20034;-69
2021/08/13 03:06:32;;;;;;;11.25;5.47;;;;;;;;;;5066645;28;20021;-68
2021/08/13 03:08:59;;;;;;;8.18;4.75;;;;;;;;;;5069435;28;20419;-70
2021/08/13 03:11:26;;;;;;;9.65;4.55;;;;;;;;;;5064338;28;20503;-72
2021/08/13 03:13:54;;;;;;;12.38;5.47;;;;;;;;;;5068188;28;20066;-68
2021/08/13 03:16:20;;;;;;;11.25;5.60;;;;;;;;;;5067394;28;20021;-68
2021/08/13 03:18:47;;;;;;;10.23;4.75;;;;;;;;;;5066937;28;20131;-70
2021/08/13 03:21:13;;;;;;;7.88;4.03;;;;;;;;;;5070447;28;20036;-68
2021/08/13 03:23:40;;;;;;;6.47;4.00;;;;;;;;;;5067364;28;20039;-69
2021/08/13 03:26:09;;;;;;;11.77;4.10;;;;;;;;;;5068522;28;20017;-70
2021/08/13 03:28:36;;;;;;;11.57;4.28;;;;;;;;;;5068248;28;20099;-68
2021/08/13 03:31:03;;;;;;;7.90;3.70;;;;;;;;;;5068017;28;20033;-74
2021/08/13 03:33:29;;;;;;;6.22;3.67;;;;;;;;;;5071576;28;20027;-69
2021/08/13 03:35:56;;;;;;;10.23;3.97;;;;;;;;;;5068921;28;20028;-68
2021/08/13 03:38:22;;;;;;;9.80;4.28;;;;;;;;;;5070098;28;20066;-68
2021/08/13 03:40:48;;;;;;;5.60;3.88;;;;;;;;;;5071214;28;20365;-68
2021/08/13 03:43:14;;;;;;;6.97;3.97;;;;;;;;;;5072515;28;20040;-68
2021/08/13 03:45:41;;;;;;;6.35;3.70;;;;;;;;;;5071518;28;20036;-68
2021/08/13 03:48:07;;;;;;;10.18;3.42;;;;;;;;;;5072058;28;20034;-68
2021/08/13 03:50:33;;;;;;;8.60;3.80;;;;;;;;;;5071559;28;20035;-69
2021/08/13 03:52:59;;;;;;;7.25;4.15;;;;;;;;;;5068094;28;20086;-68
2021/08/13 03:55:25;;;;;;;7.93;3.83;;;;;;;;;;5074256;28;20020;-68
2021/08/13 03:57:51;;;;;;;10.43;3.95;;;;;;;;;;5067732;28;20039;-71
2021/08/13 04:00:18;;;;;;;11.57;4.53;;;;;;;;;;5072198;28;20021;-72
2021/08/13 04:02:44;;;;;;;10.90;4.20;;;;;;;;;;5066838;28;20052;-68
2021/08/13 04:05:11;;;;;;;12.35;4.53;;;;;;;;;;5072014;28;20024;-69
2021/08/13 04:07:37;;;;;;;10.65;4.93;;;;;;;;;;5070037;28;20019;-68
2021/08/13 04:10:03;;;;;;;13.90;5.05;;;;;;;;;;5070676;28;20031;-68
2021/08/13 04:12:30;;;;;;;17.25;4.53;;;;;;;;;;5072130;28;20024;-68
2021/08/13 04:14:56;;;;;;;15.27;4.72;;;;;;;;;;5073557;28;20028;-68
2021/08/13 04:17:22;;;;;;;10.50;4.32;;;;;;;;;;5072676;28;20042;-68
2021/08/13 04:19:49;;;;;;;13.10;4.30;;;;;;;;;;5065720;28;20056;-69
2021/08/13 04:22:17;;;;;;;7.38;4.43;;;;;;;;;;5072882;28;20062;-69
2021/08/13 04:24:43;;;;;;;9.13;3.55;;;;;;;;;;5070785;28;20066;-68
2021/08/13 04:27:09;;;;;;;8.48;4.28;;;;;;;;;;5071105;28;20041;-69
2021/08/13 04:29:35;;;;;;;7.05;4.22;;;;;;;;;;5071835;28;20020;-75
2021/08/13 04:32:01;;;;;;;7.65;3.50;;;;;;;;;;5070415;28;20112;-68
2021/08/13 04:34:27;;;;;;;9.75;3.05;;;;;;;;;;5071697;28;20052;-68
2021/08/13 04:36:54;;;;;;;9.43;3.70;;;;;;;;;;5067592;28;20024;-68
2021/08/13 04:39:20;;;;;;;7.40;4.03;;;;;;;;;;5073109;28;20026;-68
2021/08/13 04:41:46;;;;;;;13.15;4.30;;;;;;;;;;5072024;28;20764;-68
2021/08/13 04:44:12;;;;;;;12.15;4.30;;;;;;;;;;5074458;28;20027;-68
2021/08/13 04:46:41;;;;;;;8.95;3.75;;;;;;;;;;5070899;28;20023;-70
2021/08/13 04:49:07;;;;;;;12.55;4.65;;;;;;;;;;5071551;28;20032;-69
2021/08/13 04:51:33;;;;;;;12.82;4.47;;;;;;;;;;5068834;28;20037;-68
2021/08/13 04:53:59;;;;;;;13.35;4.57;;;;;;;;;;5069205;28;20029;-68
2021/08/13 04:56:25;;;;;;;8.98;3.95;;;;;;;;;;5068523;28;20031;-68
2021/08/13 04:58:52;;;;;;;11.07;4.90;;;;;;;;;;5071727;28;20048;-68
2021/08/13 05:01:18;;;;;;;17.52;4.93;;;;;;;;;;5067267;28;20025;-69
2021/08/13 05:03:44;;;;;;;20.83;4.93;;;;;;;;;;5071105;28;20027;-68
2021/08/13 05:06:11;;;;;;;32.28;6.43;;;;;;;;;;5066572;28;20074;-68
2021/08/13 05:08:38;;;;;;;20.58;5.38;;;;;;;;;;5072158;28;20032;-68
2021/08/13 05:11:04;;;;;;;12.65;4.47;;;;;;;;;;5069496;28;20036;-69
2021/08/13 05:13:31;;;;;;;12.32;5.20;;;;;;;;;;5070041;28;20039;-68
2021/08/13 05:15:57;;;;;;;21.52;5.28;;;;;;;;;;5071283;28;20110;-68
2021/08/13 05:18:23;;;;;;;12.77;5.30;;;;;;;;;;5069692;28;20393;-72
2021/08/13 05:20:49;;;;;;;10.55;5.00;;;;;;;;;;5071585;28;20035;-68
2021/08/13 05:23:15;;;;;;;10.18;4.85;;;;;;;;;;5067952;28;20024;-68
2021/08/13 05:25:41;;;;;;;15.65;6.05;;;;;;;;;;5072104;28;20029;-68
2021/08/13 05:28:07;;;;;;;9.60;5.63;;;;;;;;;;5068591;28;20021;-69
2021/08/13 05:30:34;;;;;;;14.52;5.28;;;;;;;;;;5064126;28;20058;-68
2021/08/13 05:33:00;;;;;;;15.95;6.45;;;;;;;;;;5072411;28;20020;-68
2021/08/13 05:35:26;;;;;;;14.27;5.40;;;;;;;;;;5066707;28;20764;-69
2021/08/13 05:37:52;;;;;;;17.35;6.72;;;;;;;;;;5072320;28;20028;-71
2021/08/13 05:40:19;;;;;;;18.35;6.80;;;;;;;;;;5067607;28;20591;-68
2021/08/13 05:42:45;;;;;;;16.42;6.45;;;;;;;;;;5067039;28;20427;-69
2021/08/13 05:45:11;;;;;;;15.65;6.38;;;;;;;;;;5074567;28;20537;-75
2021/08/13 05:47:39;;;;;;;19.17;6.85;;;;;;;;;;5066837;28;20036;-70
2021/08/13 05:50:06;;;;;;;18.75;7.50;;;;;;;;;;5072393;28;20077;-71
2021/08/13 05:52:32;;;;;;;20.50;6.70;;;;;;;;;;5068201;28;20029;-68
2021/08/13 05:54:58;;;;;;;7.65;5.15;;;;;;;;;;5069900;28;20090;-72
2021/08/13 05:57:24;;;;;;;15.30;6.82;;;;;;;;;;5070680;28;20024;-68
2021/08/13 05:59:50;;;;;;;11.40;6.53;;;;;;;;;;5066915;28;20032;-70
2021/08/13 06:02:18;;;;;;;13.48;5.78;;;;;;;;;;5069414;28;20028;-69
2021/08/13 06:04:44;;;;;;;9.50;5.90;;;;;;;;;;5067635;28;20012;-71
2021/08/13 06:07:10;;;;;;;20.65;6.25;;;;;;;;;;5072537;28;20028;-69
2021/08/13 06:09:36;;;;;;;15.60;6.05;;;;;;;;;;5069912;28;20028;-70
2021/08/13 06:12:02;;;;;;;13.55;6.68;;;;;;;;;;5066393;28;20038;-69
2021/08/13 06:14:29;;;;;;;14.80;7.18;;;;;;;;;;5069454;28;20491;-68
2021/08/13 06:16:55;;;;;;;13.38;6.38;;;;;;;;;;5069420;28;20074;-70
2021/08/13 06:19:21;;;;;;;13.07;6.60;;;;;;;;;;5068344;28;20047;-69
2021/08/13 06:21:47;;;;;;;15.80;6.97;;;;;;;;;;5068201;28;20017;-69
2021/08/13 06:24:13;;;;;;;13.18;6.38;;;;;;;;;;5071425;28;21014;-69
2021/08/13 06:26:39;;;;;;;15.98;7.00;;;;;;;;;;5066888;28;20473;-69
2021/08/13 06:29:05;;;;;;;17.55;7.38;;;;;;;;;;5065079;28;20037;-69
2021/08/13 06:31:32;;;;;;;21.33;6.18;;;;;;;;;;5066367;28;20046;-71
2021/08/13 06:33:58;;;;;;;16.85;7.82;;;;;;;;;;5065310;28;20031;-69
2021/08/13 06:36:24;;;;;;;18.85;7.85;;;;;;;;;;5060695;28;20024;-69
2021/08/13 06:38:50;;;;;;;25.10;9.15;;;;;;;;;;5061841;28;20023;-72
2021/08/13 06:41:16;;;;;;;28.63;9.57;;;;;;;;;;5061245;28;20020;-71
2021/08/13 06:43:43;;;;;;;14.43;8.13;;;;;;;;;;5061774;28;20095;-72
2021/08/13 06:46:09;;;;;;;24.70;9.10;;;;;;;;;;5070994;28;20450;-72
2021/08/13 06:48:35;;;;;;;25.08;8.38;;;;;;;;;;5075637;28;20032;-72
2021/08/13 06:51:01;;;;;;;16.83;8.30;;;;;;;;;;5071560;28;20036;-72
2021/08/13 06:53:27;;;;;;;18.80;8.18;;;;;;;;;;5069492;28;20020;-72
2021/08/13 06:55:54;;;;;;;19.52;8.57;;;;;;;;;;5072001;28;20024;-72
2021/08/13 06:58:20;;;;;;;12.35;7.72;;;;;;;;;;5072744;28;20032;-73
2021/08/13 07:00:46;;;;;;;18.92;8.30;;;;;;;;;;5061359;28;20469;-73
2021/08/13 07:03:12;;;;;;;18.52;8.05;;;;;;;;;;5061629;28;20029;-72
2021/08/13 07:05:38;;;;;;;20.95;8.13;;;;;;;;;;5068133;28;20028;-72
2021/08/13 07:08:11;;;;;;;14.68;8.10;;;;;;;;;;5072444;28;20021;-72
2021/08/13 07:10:38;;;;;;;19.13;8.15;;;;;;;;;;5066935;28;20066;-73
2021/08/13 07:13:04;;;;;;;17.40;8.30;;;;;;;;;;5068864;28;20031;-73
2021/08/13 07:15:31;;;;;;;25.70;8.90;;;;;;;;;;5065927;28;20025;-73
2021/08/13 07:17:57;;;;;;;16.45;8.35;;;;;;;;;;5064731;28;20353;-73
2021/08/13 07:20:24;;;;;;;17.67;8.45;;;;;;;;;;5064876;28;20035;-73
2021/08/13 07:22:50;;;;;;;20.17;7.75;;;;;;;;;;5065289;28;20069;-73
2021/08/13 07:25:17;;;;;;;20.40;8.10;;;;;;;;;;5064847;28;20021;-75
2021/08/13 07:27:43;;;;;;;14.77;8.00;;;;;;;;;;5065291;28;20028;-72
2021/08/13 07:30:09;;;;;;;18.13;7.85;;;;;;;;;;5066126;28;20029;-73
2021/08/13 07:32:35;;;;;;;14.82;7.53;;;;;;;;;;5065350;28;20182;-72
2021/08/13 07:35:02;;;;;;;13.70;7.60;;;;;;;;;;5069548;28;20030;-73
2021/08/13 07:37:28;;;;;;;16.50;8.18;;;;;;;;;;5065255;28;20054;-73
2021/08/13 07:39:54;;;;;;;19.15;8.98;;;;;;;;;;5065524;28;20025;-73
2021/08/13 07:42:25;;;;;;;17.00;8.18;;;;;;;;;;5074617;28;20067;-73
2021/08/13 07:44:51;;;;;;;20.77;9.32;;;;;;;;;;5065998;28;20050;-73
2021/08/13 07:47:17;;;;;;;25.10;9.07;;;;;;;;;;5070584;28;20017;-73
2021/08/13 07:49:43;;;;;;;20.83;8.43;;;;;;;;;;5067077;28;20027;-72
2021/08/13 07:52:09;;;;;;;12.35;7.70;;;;;;;;;;5064022;28;20584;-72
2021/08/13 07:54:36;;;;;;;17.77;8.57;;;;;;;;;;5066335;28;20024;-71
2021/08/13 07:57:02;;;;;;;17.17;8.07;;;;;;;;;;5069286;28;20432;-73
2021/08/13 07:59:28;;;;;;;14.60;7.43;;;;;;;;;;5064067;28;20028;-73
2021/08/13 08:01:54;;;;;;;14.20;8.25;;;;;;;;;;5062659;28;20544;-73
2021/08/13 08:04:20;;;;;;;14.68;7.25;;;;;;;;;;5064721;28;20027;-73
2021/08/13 08:06:47;;;;;;;19.55;7.88;;;;;;;;;;5067226;28;20023;-73
2021/08/13 08:09:13;;;;;;;14.68;8.30;;;;;;;;;;5066521;28;20024;-73
2021/08/13 08:11:39;;;;;;;18.98;8.63;;;;;;;;;;5064400;28;20502;-74
2021/08/13 08:14:08;;;;;;;18.52;8.00;;;;;;;;;;5074592;28;20028;-72
2021/08/13 08:16:34;;;;;;;19.70;8.77;;;;;;;;;;5071142;28;20017;-73
2021/08/13 08:19:00;;;;;;;22.73;8.73;;;;;;;;;;5072144;28;20040;-72
2021/08/13 08:21:26;;;;;;;22.00;9.13;;;;;;;;;;5072601;28;20468;-73
2021/08/13 08:23:52;;;;;;;20.90;8.52;;;;;;;;;;5069864;28;20032;-74
2021/08/13 08:26:18;;;;;;;23.02;7.70;;;;;;;;;;5073625;28;20020;-72
2021/08/13 08:28:45;;;;;;;21.77;8.45;;;;;;;;;;5071262;28;20205;-72
2021/08/13 08:31:12;;;;;;;17.27;8.18;;;;;;;;;;5070723;28;20118;-73
2021/08/13 08:33:38;;;;;;;17.48;7.55;;;;;;;;;;5073217;28;20592;-72
2021/08/13 08:36:05;;;;;;;13.40;7.70;;;;;;;;;;5066865;28;20135;-73
2021/08/13 08:38:32;;;;;;;18.05;7.95;;;;;;;;;;5073826;28;20665;-73
2021/08/13 08:41:02;;;;;;;17.45;7.18;;;;;;;;;;5070798;28;20473;-74
2021/08/13 08:43:28;;;;;;;13.50;8.85;;;;;;;;;;5068873;28;20103;-72
2021/08/13 08:45:55;;;;;;;21.10;8.68;;;;;;;;;;5071137;28;20519;-73
2021/08/13 08:48:22;;;;;;;18.25;8.43;;;;;;;;;;5070954;28;20059;-73
2021/08/13 08:50:48;;;;;;;16.60;8.32;;;;;;;;;;5066612;28;20396;-72
2021/08/13 08:53:14;;;;;;;14.80;8.27;;;;;;;;;;5071086;28;20653;-72
2021/08/13 08:55:41;;;;;;;17.85;9.07;;;;;;;;;;5070088;28;20028;-74
2021/08/13 08:58:08;;;;;;;16.27;7.78;;;;;;;;;;5064807;28;20385;-72
2021/08/13 09:00:34;;;;;;;18.23;8.20;;;;;;;;;;5071317;28;20434;-72
2021/08/13 09:03:00;;;;;;;24.42;9.85;;;;;;;;;;5070103;28;20024;-74
2021/08/13 09:05:27;;;;;;;24.13;7.97;;;;;;;;;;5070781;28;20051;-72
2021/08/13 09:07:53;;;;;;;17.58;8.63;;;;;;;;;;5067822;28;20107;-72
2021/08/13 09:10:19;;;;;;;22.38;9.25;;;;;;;;;;5067001;28;20024;-72
2021/08/13 09:12:45;;;;;;;18.70;8.07;;;;;;;;;;5068414;28;20023;-72
2021/08/13 09:15:28;;;;;;;16.67;9.23;;;;;;;;;;5069381;28;20685;-73
2021/08/13 09:18:14;;;;;;;16.80;8.55;;;;;;;;;;5063353;28;20115;-74
2021/08/13 09:20:45;;;;;;;18.63;8.70;;;;;;;;;;5060393;28;20102;-72
2021/08/13 09:23:12;;;;;;;23.50;9.07;;;;;;;;;;5063605;28;20021;-73
2021/08/13 09:25:38;;;;;;;18.35;8.38;;;;;;;;;;5066743;28;20047;-73
2021/08/13 09:28:04;;;;;;;15.93;7.43;;;;;;;;;;5064319;28;20480;-72
2021/08/13 09:30:30;;;;;;;16.75;8.20;;;;;;;;;;5061169;28;20036;-73
2021/08/13 09:33:03;;;;;;;15.20;7.70;;;;;;;;;;5068082;28;20043;-73
2021/08/13 09:35:40;;;;;;;17.50;8.10;;;;;;;;;;5067768;28;20021;-73
2021/08/13 09:38:13;;;;;;;22.90;8.40;;;;;;;;;;5065807;28;20598;-74
2021/08/13 09:40:43;;;;;;;14.15;7.32;;;;;;;;;;5066265;28;20029;-73
2021/08/13 09:43:09;;;;;;;13.93;7.88;;;;;;;;;;5063382;28;20052;-73
2021/08/13 09:45:35;;;;;;;23.50;8.10;;;;;;;;;;5067179;28;20024;-73
2021/08/13 09:48:02;;;;;;;16.08;8.38;;;;;;;;;;5064339;28;20602;-73
2021/08/13 09:50:35;;;;;;;18.00;8.02;;;;;;;;;;5070143;28;20032;-74
2021/08/13 09:53:20;;;;;;;14.07;7.65;;;;;;;;;;5068281;28;20062;-73
2021/08/13 09:55:46;;;;;;;12.35;8.00;;;;;;;;;;5068661;28;20061;-72
2021/08/13 09:58:12;;;;;;;15.07;7.95;;;;;;;;;;5065101;28;20047;-72
2021/08/13 10:00:45;;;;;;;21.90;9.43;;;;;;;;;;5064317;28;20024;-72
2021/08/13 10:03:12;;;;;;;18.73;8.85;;;;;;;;;;5068236;28;20229;-72
2021/08/13 10:05:39;;;;;;;22.35;8.88;;;;;;;;;;5069496;28;20032;-72
2021/08/13 10:08:06;;;;;;;20.38;9.23;;;;;;;;;;5067007;28;20036;-72
2021/08/13 10:10:33;;;;;;;15.02;8.43;;;;;;;;;;5066265;28;20451;-72
2021/08/13 10:12:59;;;;;;;14.15;8.35;;;;;;;;;;5068807;28;20408;-72
2021/08/13 10:15:36;;;;;;;17.88;8.95;;;;;;;;;;5067345;28;20045;-72
2021/08/13 10:18:07;;;;;;;14.75;8.73;;;;;;;;;;5068355;28;20036;-72
2021/08/13 10:20:34;;;;;;;17.02;9.38;;;;;;;;;;5067448;28;20051;-72
2021/08/13 10:23:01;;;;;;;20.52;9.25;;;;;;;;;;5060638;28;20120;-72
2021/08/13 10:25:28;;;;;;;16.80;8.85;;;;;;;;;;5062294;28;20107;-72
2021/08/13 10:27:54;;;;;;;13.75;8.45;;;;;;;;;;5071841;28;20024;-72
2021/08/13 10:30:21;;;;;;;13.55;7.80;;;;;;;;;;5064788;28;20050;-72
2021/08/13 10:32:47;;;;;;;15.48;8.05;;;;;;;;;;5067245;28;20090;-72
2021/08/13 10:35:14;;;;;;;21.40;8.35;;;;;;;;;;5064100;28;20017;-72
2021/08/13 10:37:42;;;;;;;19.05;8.65;;;;;;;;;;5073566;28;20024;-71
2021/08/13 10:40:08;;;;;;;17.77;7.97;;;;;;;;;;5070368;28;20040;-71
2021/08/13 10:42:36;;;;;;;13.18;8.32;;;;;;;;;;5069619;28;20035;-72
2021/08/13 10:45:05;;;;;;;16.50;8.18;;;;;;;;;;5069787;28;20120;-71
2021/08/13 10:47:34;;;;;;;20.67;8.40;;;;;;;;;;5068706;28;20032;-72
2021/08/13 10:50:02;;;;;;;16.58;8.30;;;;;;;;;;5069331;28;20079;-72
2021/08/13 10:52:32;;;;;;;18.35;8.30;;;;;;;;;;5076187;28;20028;-73
2021/08/13 10:54:58;;;;;;;17.90;7.90;;;;;;;;;;5068076;28;20042;-73
2021/08/13 10:57:43;;;;;;;12.60;8.07;;;;;;;;;;5078957;28;20027;-72
2021/08/13 11:00:10;;;;;;;17.17;7.60;;;;;;;;;;5067639;28;20024;-73
2021/08/13 11:02:36;;;;;;;15.75;7.38;;;;;;;;;;5069205;28;20025;-71
2021/08/13 11:05:02;;;;;;;23.08;8.10;;;;;;;;;;5068855;28;20036;-72
2021/08/13 11:07:47;;;;;;;15.57;7.28;;;;;;;;;;5069924;28;20050;-71
2021/08/13 11:10:31;;;;;;;14.30;6.55;;;;;;;;;;5072218;28;20430;-73
2021/08/13 11:13:18;;;;;;;13.60;6.15;;;;;;;;;;5075028;28;20104;-72
2021/08/13 11:15:45;;;;;;;20.50;6.80;;;;;;;;;;5069951;28;20024;-74
2021/08/13 11:18:26;;;;;;;11.13;6.10;;;;;;;;;;5076691;28;20046;-71
2021/08/13 11:20:53;;;;;;;14.13;5.95;;;;;;;;;;5073760;28;20062;-73
2021/08/13 11:23:19;;;;;;;16.35;7.05;;;;;;;;;;5073226;28;20024;-72
2021/08/13 11:25:48;;;;;;;13.80;5.85;;;;;;;;;;5072275;28;20024;-72
2021/08/13 11:28:17;;;;;;;15.45;6.15;;;;;;;;;;5070019;28;20020;-72
2021/08/13 11:30:45;;;;;;;16.80;5.90;;;;;;;;;;5073287;28;20126;-72
2021/08/13 11:33:29;;;;;;;12.52;5.93;;;;;;;;;;5076530;28;20484;-73
2021/08/13 11:35:56;;;;;;;16.95;6.50;;;;;;;;;;5073407;28;20424;-73
2021/08/13 11:38:41;;;;;;;10.48;6.15;;;;;;;;;;5075584;28;20043;-71
2021/08/13 11:41:22;;;;;;;12.80;5.43;;;;;;;;;;5075843;28;20043;-72
2021/08/13 11:43:49;;;;;;;18.70;5.45;;;;;;;;;;5064645;28;20044;-71
2021/08/13 11:46:26;;;;;;;13.55;5.95;;;;;;;;;;5066371;28;20442;-72
2021/08/13 11:48:54;;;;;;;10.82;5.40;;;;;;;;;;5064599;28;20059;-73
2021/08/13 11:51:21;;;;;;;14.10;5.38;;;;;;;;;;5064485;28;20695;-73
2021/08/13 11:53:47;;;;;;;12.23;5.43;;;;;;;;;;5064374;28;20038;-72
2021/08/13 11:56:23;;;;;;;10.60;4.65;;;;;;;;;;5064843;28;20413;-72
2021/08/13 11:59:06;;;;;;;8.43;4.65;;;;;;;;;;5072064;28;20021;-72
2021/08/13 12:01:51;;;;;;;10.35;4.60;;;;;;;;;;5069833;28;20036;-72
2021/08/13 12:04:21;;;;;;;9.02;4.55;;;;;;;;;;5067529;28;20040;-72
2021/08/13 12:06:59;;;;;;;10.80;4.60;;;;;;;;;;5072522;28;20093;-72
2021/08/13 12:09:41;;;;;;;7.30;4.25;;;;;;;;;;5069476;28;20013;-72
2021/08/13 12:12:12;;;;;;;10.82;4.60;;;;;;;;;;5070581;28;20039;-72
2021/08/13 12:14:38;;;;;;;8.45;4.50;;;;;;;;;;5070608;28;20190;-71
2021/08/13 12:17:05;;;;;;;12.52;5.43;;;;;;;;;;5068112;28;20036;-72
2021/08/13 12:19:33;;;;;;;13.50;4.80;;;;;;;;;;5068501;28;20559;-73
2021/08/13 12:21:59;;;;;;;7.93;4.22;;;;;;;;;;5070390;28;20029;-71
2021/08/13 12:24:32;;;;;;;10.82;4.63;;;;;;;;;;5069773;28;20098;-73
2021/08/13 12:26:59;;;;;;;9.25;4.22;;;;;;;;;;5067397;28;20386;-73
2021/08/13 12:29:27;;;;;;;9.63;4.38;;;;;;;;;;5068841;28;20016;-75
2021/08/13 12:31:54;;;;;;;7.80;3.90;;;;;;;;;;5069488;28;20071;-72
2021/08/13 12:34:21;;;;;;;8.88;4.00;;;;;;;;;;5068729;28;20051;-72
2021/08/13 12:36:47;;;;;;;7.60;3.63;;;;;;;;;;5066478;28;20101;-72
2021/08/13 12:39:21;;;;;;;11.02;4.00;;;;;;;;;;5071025;28;20027;-73
2021/08/13 12:41:47;;;;;;;6.88;3.80;;;;;;;;;;5068909;28;20036;-72
2021/08/13 12:44:13;;;;;;;10.93;4.00;;;;;;;;;;5072168;28;20028;-73
2021/08/13 12:46:39;;;;;;;8.43;4.22;;;;;;;;;;5066442;28;20555;-74
2021/08/13 12:49:06;;;;;;;11.88;3.92;;;;;;;;;;5068587;28;20629;-74
2021/08/13 12:51:32;;;;;;;9.57;4.03;;;;;;;;;;5071306;28;20047;-71
2021/08/13 12:53:59;;;;;;;9.50;4.35;;;;;;;;;;5070594;28;20029;-72
2021/08/13 12:56:25;;;;;;;12.07;4.13;;;;;;;;;;5072001;28;20025;-73
2021/08/13 12:58:51;;;;;;;7.97;4.38;;;;;;;;;;5070378;28;20464;-73
2021/08/13 13:01:26;;;;;;;11.73;4.47;;;;;;;;;;5066706;28;20025;-74
2021/08/13 13:04:05;;;;;;;14.48;4.35;;;;;;;;;;5071153;28;20029;-73
2021/08/13 13:06:32;;;;;;;9.25;4.72;;;;;;;;;;5066661;28;20031;-73
2021/08/13 13:08:58;;;;;;;8.05;4.25;;;;;;;;;;5069912;28;20025;-73
2021/08/13 13:11:28;;;;;;;11.07;4.43;;;;;;;;;;5068137;28;20488;-73
2021/08/13 13:13:55;;;;;;;7.22;4.00;;;;;;;;;;5072650;28;20128;-73
2021/08/13 13:16:21;;;;;;;9.57;4.70;;;;;;;;;;5069237;28;20034;-73
2021/08/13 13:18:48;;;;;;;11.02;4.65;;;;;;;;;;5068116;28;20059;-73
2021/08/13 13:21:24;;;;;;;10.18;5.05;;;;;;;;;;5068077;28;20024;-71
2021/08/13 13:23:50;;;;;;;10.48;4.60;;;;;;;;;;5070442;28;20047;-72
2021/08/13 13:26:17;;;;;;;12.10;4.50;;;;;;;;;;5070018;28;20774;-72
2021/08/13 13:28:43;;;;;;;9.65;4.85;;;;;;;;;;5068852;28;20161;-73
2021/08/13 13:31:10;;;;;;;11.02;4.43;;;;;;;;;;5069980;28;20060;-73
2021/08/13 13:33:37;;;;;;;11.05;4.43;;;;;;;;;;5069479;28;20580;-73
2021/08/13 13:36:04;;;;;;;11.68;4.88;;;;;;;;;;5075505;28;20032;-73
2021/08/13 13:38:37;;;;;;;11.32;5.05;;;;;;;;;;5068994;28;20189;-73
2021/08/13 13:41:04;;;;;;;12.57;5.30;;;;;;;;;;5069256;28;20440;-73
2021/08/13 13:43:31;;;;;;;11.15;4.93;;;;;;;;;;5069807;28;20107;-73
2021/08/13 13:45:58;;;;;;;15.48;5.20;;;;;;;;;;5067099;28;20028;-73
2021/08/13 13:48:24;;;;;;;14.52;5.60;;;;;;;;;;5070153;28;20039;-73
2021/08/13 13:50:51;;;;;;;13.05;5.00;;;;;;;;;;5065583;28;20024;-73
2021/08/13 13:53:18;;;;;;;15.00;5.40;;;;;;;;;;5070477;28;20077;-73
2021/08/13 13:55:44;;;;;;;16.02;5.95;;;;;;;;;;5069617;28;20156;-73
2021/08/13 13:58:11;;;;;;;10.90;5.35;;;;;;;;;;5066066;28;20092;-73
2021/08/13 14:00:38;;;;;;;13.60;5.35;;;;;;;;;;5070770;28;20503;-73
2021/08/13 14:03:04;;;;;;;11.65;4.95;;;;;;;;;;5071460;28;20033;-73
2021/08/13 14:05:31;;;;;;;11.55;4.82;;;;;;;;;;5066761;28;20020;-73
2021/08/13 14:07:58;;;;;;;16.15;6.13;;;;;;;;;;5066022;28;20038;-73
2021/08/13 14:10:28;;;;;;;11.45;4.72;;;;;;;;;;5062882;28;20030;-73
2021/08/13 14:12:59;;;;;;;14.43;5.37;;;;;;;;;;5061749;28;20509;-73
2021/08/13 14:15:25;;;;;;;19.98;5.47;;;;;;;;;;5058889;28;20024;-74
2021/08/13 14:17:52;;;;;;;12.70;5.35;;;;;;;;;;5065291;28;20027;-73
2021/08/13 14:20:18;;;;;;;14.85;5.43;;;;;;;;;;5066197;28;20104;-73
2021/08/13 14:22:44;;;;;;;9.10;4.43;;;;;;;;;;5068103;28;20138;-73
2021/08/13 14:25:12;;;;;;;13.25;5.13;;;;;;;;;;5065390;28;20025;-73
2021/08/13 14:27:39;;;;;;;16.92;6.25;;;;;;;;;;5066745;28;20475;-74
2021/08/13 14:30:06;;;;;;;14.38;5.10;;;;;;;;;;5067993;28;20047;-73
2021/08/13 14:32:32;;;;;;;13.43;4.85;;;;;;;;;;5067230;28;20465;-73
2021/08/13 14:34:58;;;;;;;18.42;5.97;;;;;;;;;;5065979;28;20025;-73